Portada
METAR-TAF:

METAR-TAF

Aeroports :

Kinloss, Escòcia

latitud: 57-39N, longitud: 003-34W, altitud: 7 m

Observació

L'informe es va fer fa 35 minuts, a les 12:50 UTC
Vent 19 kt del Sud-Oest amb ràfegues de 31 kt
Temperatura 5°C
Humitat 75%
Pressió 985 hPa
Visibilitat 10 km o més

METAR: EGQK 111250Z AUTO 22019G31KT 9999 NCD 05/01 Q0985

Hora: 13:25 (13:25 UTC)


TAF: manca

Observacions i pronòstics meteorològics de més de 4000 aeroports (METAR i TAF).

Les estacions disponibles són els punts grocs i vermells al mapa.

Posi el ratolí al punt desitjat per veure el nom de l'estació.

Feu clic per veure les observacions i els pronòstics meteorològics.

Per canviar el mapa: feu clic els botons verds amb una creu de color negre per apropar; al botó verd amb un guió per allunyar la imatge; o en les fletxes verdes per a mapes adjacents.


METAR-TAF: